Lake Pleasant, Massachusetts
Current Conditions -  °F | °C
As of 10:52 PM on Thursday 18 Dec 2014 (Local Time) from KORE Reporting Station
Overcast Overcast  
Wind Chill: 25°   Ceiling: 2300
Heat Index: 33°   Visibility: 10mi
Dew Point: 26°   Wind: 10mph
Humidity: 75%   Direction: 280°W
Pressure: 29.86"   Gusts: NA
Location:  42.56°N, 72.52°W
Report Text: KORE 190352Z AUTO 28009KT 10SM OVC023 01/M03 A2986 RMK AO2 SLP119 T00061033
Loading
Personal Weather Stations






























Interactive Weather Map New forecast layout! Learn more

10-Day Weather Forecast

Advertisements
Track Severe Weather on mobile